This is the latest recevied weather packets stored in our database for station/object S59DKS-10. If no packets are shown the sender has not sent any weather packets the latest 10 day(s).
| Time | Temp. | Humidity | Pressure | Rain* | Wind** | Luminosity | Snow |
|---|---|---|---|---|---|---|---|
| 1777528299 | 8.89° C | 35% | 1025.3 hPa | - | - | - | - |
| 1777528262 | 8.89° C | 35% | 1025.3 hPa | - | - | - | - |
| 1777527363 | 8.89° C | 35% | 1024.9 hPa | - | - | - | - |
| 1777526464 | 8.33° C | 37% | 1024.2 hPa | - | - | - | - |
| 1777525603 | 6.67° C | 42% | 1023.4 hPa | - | - | - | - |
| 1777525566 | 6.67° C | 42% | 1023.4 hPa | - | - | - | - |
| 1777524667 | 7.22° C | 41% | 1024.1 hPa | - | - | - | - |
| 1777523768 | 7.22° C | 42% | 1023.9 hPa | - | - | - | - |
| 1777522869 | 6.67° C | 45% | 1024.4 hPa | - | - | - | - |
| 1777521970 | 5° C | 49% | 1024.6 hPa | - | - | - | - |
| 1777521071 | 5° C | 49% | 1024.3 hPa | - | - | - | - |
| 1777520173 | 5.56° C | 50% | 1024.1 hPa | - | - | - | - |
| 1777519275 | 5.56° C | 49% | 1024.3 hPa | - | - | - | - |
| 1777518375 | 6.11° C | 49% | 1024.3 hPa | - | - | - | - |
| 1777517476 | 6.11° C | 50% | 1024 hPa | - | - | - | - |
| 1777516577 | 6.11° C | 49% | 1023.9 hPa | - | - | - | - |
| 1777515685 | 6.11° C | 50% | 1024.3 hPa | - | - | - | - |
| 1777514780 | 6.11° C | 51% | 1023.9 hPa | - | - | - | - |
| 1777513881 | 6.67° C | 50% | 1024 hPa | - | - | - | - |
| 1777512982 | 7.22° C | 50% | 1023.6 hPa | - | - | - | - |
| 1777512083 | 7.22° C | 51% | 1023.9 hPa | - | - | - | - |
| 1777511184 | 7.22° C | 52% | 1024 hPa | - | - | - | - |
| 1777510401 | 7.22° C | 53% | 1023.9 hPa | - | - | - | - |
| 1777510285 | 7.22° C | 53% | 1023.9 hPa | - | - | - | - |
| 1777509383 | 7.22° C | 53% | 1023.6 hPa | - | - | - | - |
* Rain since midnight (hover to see other rain measurements)
** Current wind speed in m/s (hover to see current wind gust speed)